createdAt,value
2022-10-20T00:00:35.569Z,13.09
2022-10-20T00:03:03.335Z,13.11
2022-10-20T00:05:31.068Z,13.10
2022-10-20T00:07:58.799Z,13.08
2022-10-20T00:10:26.556Z,13.13
2022-10-20T00:12:54.292Z,13.09
2022-10-20T00:15:21.989Z,13.09
2022-10-20T00:17:51.027Z,13.07
2022-10-20T00:20:18.800Z,13.03
2022-10-20T00:22:46.548Z,13.05
2022-10-20T00:25:14.220Z,13.06
2022-10-20T00:27:41.923Z,13.09
2022-10-20T00:30:10.303Z,13.08
2022-10-20T00:32:38.531Z,13.10
2022-10-20T00:35:08.732Z,13.07
2022-10-20T00:37:36.460Z,13.06
2022-10-20T00:40:04.797Z,13.04
2022-10-20T00:42:32.715Z,13.02
2022-10-20T00:45:01.842Z,13.05
2022-10-20T00:47:37.705Z,13.10
2022-10-20T00:50:11.759Z,13.05
2022-10-20T00:52:41.160Z,13.07
2022-10-20T00:55:11.305Z,13.07
2022-10-20T00:57:39.654Z,13.07
2022-10-20T01:00:08.885Z,13.02
2022-10-20T01:02:37.254Z,13.04
2022-10-20T01:05:06.024Z,13.00
2022-10-20T01:07:35.723Z,12.99
2022-10-20T01:10:05.227Z,13.01
2022-10-20T01:12:43.239Z,13.01
2022-10-20T01:15:21.426Z,13.03
2022-10-20T01:18:02.976Z,12.99
2022-10-20T01:21:00.864Z,12.99
2022-10-20T01:23:55.062Z,13.02
2022-10-20T01:26:44.722Z,13.00
2022-10-20T01:29:19.911Z,13.01
2022-10-20T01:31:54.276Z,13.04
2022-10-20T01:34:29.154Z,13.03
2022-10-20T01:37:01.432Z,13.03
2022-10-20T01:39:32.257Z,13.04
2022-10-20T01:42:04.714Z,13.03
2022-10-20T01:44:37.263Z,13.06
2022-10-20T01:47:06.919Z,13.04
2022-10-20T01:49:34.647Z,12.98
2022-10-20T01:52:02.660Z,13.02
2022-10-20T01:54:31.936Z,12.97
2022-10-20T01:57:19.764Z,12.98
2022-10-20T02:00:02.340Z,12.97
2022-10-20T02:02:53.068Z,12.97
2022-10-20T02:05:34.081Z,12.96
2022-10-20T02:08:13.095Z,12.97
2022-10-20T02:10:47.288Z,12.95
2022-10-20T02:13:16.237Z,12.88
2022-10-20T02:15:48.340Z,12.96
2022-10-20T02:18:21.006Z,12.99
2022-10-20T02:20:51.493Z,13.01
2022-10-20T02:23:19.465Z,13.01
2022-10-20T02:25:49.480Z,12.98
2022-10-20T02:28:18.366Z,12.95
2022-10-20T02:30:48.618Z,12.96
2022-10-20T02:33:17.590Z,12.97
2022-10-20T02:35:51.993Z,12.97
2022-10-20T02:38:19.650Z,12.99
2022-10-20T02:40:47.620Z,12.99
2022-10-20T02:43:15.410Z,12.98
2022-10-20T02:45:43.196Z,12.99
2022-10-20T02:48:12.227Z,12.98
2022-10-20T02:50:39.929Z,13.00
2022-10-20T02:53:07.772Z,12.98
2022-10-20T02:55:35.548Z,13.02
2022-10-20T02:58:03.198Z,13.00
2022-10-20T03:00:31.669Z,13.01
2022-10-20T03:02:59.394Z,12.96
2022-10-20T03:05:29.349Z,13.00
2022-10-20T03:07:57.219Z,12.99
2022-10-20T03:10:24.946Z,13.02
2022-10-20T03:12:52.604Z,12.97
2022-10-20T03:15:20.304Z,12.97
2022-10-20T03:17:47.975Z,13.01
2022-10-20T03:20:15.699Z,13.00
2022-10-20T03:22:44.746Z,12.98
2022-10-20T03:25:12.515Z,12.96
2022-10-20T03:27:40.200Z,12.96
2022-10-20T03:30:08.754Z,12.93
2022-10-20T03:32:36.700Z,12.96
2022-10-20T03:35:05.012Z,12.99
2022-10-20T03:37:32.745Z,12.99
2022-10-20T03:40:01.798Z,13.02
2022-10-20T03:42:29.523Z,13.02
2022-10-20T03:44:57.230Z,13.02
2022-10-20T03:47:24.931Z,12.99
2022-10-20T03:49:52.645Z,13.02
2022-10-20T03:52:20.406Z,13.03
2022-10-20T03:54:48.100Z,13.04
2022-10-20T03:57:17.659Z,13.04
2022-10-20T03:59:45.359Z,13.02
2022-10-20T04:02:25.215Z,13.07
2022-10-20T04:04:53.066Z,13.02
2022-10-20T04:07:20.796Z,12.98
2022-10-20T04:09:48.740Z,12.92
2022-10-20T04:12:18.236Z,13.02
2022-10-20T04:14:46.022Z,13.04
2022-10-20T04:17:13.753Z,13.03
2022-10-20T04:19:41.662Z,12.98
2022-10-20T04:22:09.426Z,13.01
2022-10-20T04:24:37.121Z,13.07
2022-10-20T04:27:05.682Z,13.07
2022-10-20T04:29:34.755Z,13.04
2022-10-20T04:32:02.575Z,13.01
2022-10-20T04:34:30.260Z,13.03
2022-10-20T04:36:58.913Z,13.03
2022-10-20T04:39:26.614Z,13.08
2022-10-20T04:41:54.524Z,13.04
2022-10-20T04:44:22.273Z,13.04
2022-10-20T04:46:51.372Z,13.03
2022-10-20T04:49:19.056Z,12.98
2022-10-20T04:51:46.768Z,13.05
2022-10-20T04:54:14.560Z,13.06
2022-10-20T04:56:42.351Z,13.10
2022-10-20T04:59:13.451Z,13.09
2022-10-20T05:01:41.885Z,13.12
2022-10-20T05:04:11.902Z,13.10
2022-10-20T05:06:39.867Z,13.11
2022-10-20T05:09:08.393Z,13.13
2022-10-20T05:11:37.828Z,13.11
2022-10-20T05:14:08.682Z,13.12
2022-10-20T05:16:36.443Z,13.07
2022-10-20T05:19:04.280Z,13.10
2022-10-20T05:21:33.886Z,13.12
2022-10-20T05:24:03.966Z,13.12
2022-10-20T05:26:34.903Z,13.12
2022-10-20T05:29:04.562Z,13.11
2022-10-20T05:31:32.326Z,13.09
2022-10-20T05:34:00.072Z,13.08
2022-10-20T05:36:28.418Z,13.07
2022-10-20T05:38:57.549Z,13.07
2022-10-20T05:41:27.072Z,13.08
2022-10-20T05:43:57.182Z,13.03
2022-10-20T05:46:26.231Z,13.12
2022-10-20T05:48:55.327Z,13.12
2022-10-20T05:51:25.750Z,13.13
2022-10-20T05:53:57.925Z,13.14
2022-10-20T05:56:26.976Z,13.18
2022-10-20T05:58:55.026Z,13.15
2022-10-20T06:01:24.870Z,13.14
2022-10-20T06:03:54.453Z,13.15
2022-10-20T06:06:24.496Z,13.18
2022-10-20T06:08:53.478Z,13.16
2022-10-20T06:11:24.062Z,13.16
2022-10-20T06:13:53.148Z,13.15
2022-10-20T06:16:23.347Z,13.17
2022-10-20T06:18:51.372Z,13.18
2022-10-20T06:21:21.379Z,13.14
2022-10-20T06:23:50.191Z,13.19
2022-10-20T06:26:20.462Z,13.17
2022-10-20T06:28:51.802Z,13.21
2022-10-20T06:31:20.773Z,13.22
2022-10-20T06:33:49.011Z,13.22
2022-10-20T06:36:17.266Z,13.22
2022-10-20T06:38:45.716Z,13.23
2022-10-20T06:41:16.132Z,13.25
2022-10-20T06:43:44.368Z,13.28
2022-10-20T06:46:16.277Z,13.32
2022-10-20T06:48:44.339Z,13.28
2022-10-20T06:51:14.359Z,13.34
2022-10-20T06:53:46.528Z,13.31
2022-10-20T06:56:16.424Z,13.35
2022-10-20T06:58:46.440Z,13.36
2022-10-20T07:01:18.219Z,13.38
2022-10-20T07:03:48.789Z,13.42
2022-10-20T07:06:18.348Z,13.37
2022-10-20T07:08:47.265Z,13.41
2022-10-20T07:11:17.597Z,13.41
2022-10-20T07:13:46.107Z,13.42
2022-10-20T07:16:16.867Z,13.43
2022-10-20T07:18:45.148Z,13.44
2022-10-20T07:21:15.264Z,13.45
2022-10-20T07:23:43.366Z,13.50
2022-10-20T07:26:14.184Z,13.55
2022-10-20T07:28:43.606Z,13.56
2022-10-20T07:31:13.701Z,13.54
2022-10-20T07:33:42.974Z,13.56
2022-10-20T07:36:15.989Z,13.53
2022-10-20T07:38:43.764Z,13.57
2022-10-20T07:41:12.126Z,13.61
2022-10-20T07:43:41.034Z,13.63
2022-10-20T07:46:09.315Z,13.67
2022-10-20T07:48:37.319Z,13.68
2022-10-20T07:51:17.985Z,13.77
2022-10-20T07:53:45.854Z,13.81
2022-10-20T07:56:13.851Z,13.81
2022-10-20T07:58:42.011Z,13.84
2022-10-20T08:01:10.476Z,13.88
2022-10-20T08:03:38.235Z,13.89
2022-10-20T08:06:07.083Z,13.92
2022-10-20T08:08:36.241Z,13.91
2022-10-20T08:11:04.452Z,13.96
2022-10-20T08:13:32.808Z,13.95
2022-10-20T08:16:01.846Z,14.01
2022-10-20T08:18:29.679Z,14.06
2022-10-20T08:21:07.308Z,14.07
2022-10-20T08:23:39.365Z,14.08
2022-10-20T08:26:10.713Z,14.15
2022-10-20T08:28:39.594Z,14.19
2022-10-20T08:31:08.855Z,14.22
2022-10-20T08:33:37.037Z,14.27
2022-10-20T08:36:06.368Z,14.34
2022-10-20T08:38:34.335Z,14.38
2022-10-20T08:41:04.014Z,14.39
2022-10-20T08:43:33.376Z,14.37
2022-10-20T08:46:01.139Z,14.43
2022-10-20T08:48:33.396Z,14.49
2022-10-20T08:51:01.364Z,14.47
2022-10-20T08:53:34.395Z,14.49
2022-10-20T08:56:03.468Z,14.52
2022-10-20T08:58:31.203Z,14.48
2022-10-20T09:01:01.028Z,14.50
2022-10-20T09:03:30.729Z,14.45
2022-10-20T09:06:07.366Z,14.43
2022-10-20T09:08:37.983Z,14.45
2022-10-20T09:11:09.093Z,14.47
2022-10-20T09:13:38.310Z,14.44
2022-10-20T09:16:18.366Z,14.42
2022-10-20T09:18:58.576Z,14.47
2022-10-20T09:21:26.967Z,14.52
2022-10-20T09:24:01.344Z,14.59
2022-10-20T09:26:54.651Z,14.65
2022-10-20T09:29:36.090Z,14.67
2022-10-20T09:32:34.027Z,14.68
2022-10-20T09:34:51.516Z,14.71
2022-10-20T09:37:20.914Z,14.71
2022-10-20T09:39:55.937Z,14.74
2022-10-20T09:42:30.080Z,14.74
2022-10-20T09:45:01.518Z,14.79
2022-10-20T09:47:29.969Z,14.77
2022-10-20T09:50:01.330Z,14.79
2022-10-20T09:52:34.394Z,14.80
2022-10-20T09:55:06.154Z,14.83
2022-10-20T09:57:35.911Z,14.84
2022-10-20T10:00:13.465Z,14.78
2022-10-20T10:03:09.682Z,14.83
2022-10-20T10:05:37.500Z,14.78
2022-10-20T10:08:05.442Z,14.75
2022-10-20T10:10:33.337Z,14.75
2022-10-20T10:15:34.405Z,14.82
2022-10-20T10:18:13.817Z,14.75
2022-10-20T10:20:42.372Z,14.82
2022-10-20T10:23:24.371Z,14.86
2022-10-20T10:25:53.407Z,14.82
2022-10-20T10:28:35.271Z,14.79
2022-10-20T10:31:19.487Z,14.77
2022-10-20T10:33:47.519Z,14.78
2022-10-20T10:36:22.301Z,14.80
2022-10-20T10:38:50.013Z,14.75
2022-10-20T10:41:25.171Z,14.67
2022-10-20T10:44:03.790Z,14.62
2022-10-20T10:46:37.949Z,14.57
2022-10-20T10:49:42.688Z,14.66
2022-10-20T10:52:26.428Z,14.69
2022-10-20T10:55:03.283Z,14.66
2022-10-20T10:57:37.563Z,14.68
2022-10-20T11:00:17.199Z,14.68
2022-10-20T11:03:11.429Z,14.62
2022-10-20T11:06:03.029Z,14.60
2022-10-20T11:08:47.430Z,14.58
2022-10-20T11:11:27.412Z,14.58
2022-10-20T11:14:08.367Z,14.57
2022-10-20T11:16:42.650Z,14.58
2022-10-20T11:19:35.894Z,14.57
2022-10-20T11:22:16.761Z,14.52
2022-10-20T11:24:50.037Z,14.46
2022-10-20T11:27:20.079Z,14.51
2022-10-20T11:29:50.812Z,14.43
2022-10-20T11:32:28.027Z,14.46
2022-10-20T11:35:04.207Z,14.47
2022-10-20T11:37:36.792Z,14.31
2022-10-20T11:40:16.227Z,14.48
2022-10-20T11:42:51.198Z,14.51
2022-10-20T11:45:35.475Z,14.48
2022-10-20T11:48:13.146Z,14.46
2022-10-20T11:50:43.128Z,14.46
2022-10-20T11:53:39.788Z,14.50
2022-10-20T11:56:34.132Z,14.50
2022-10-20T11:59:42.740Z,14.52
2022-10-20T12:02:41.626Z,14.50
2022-10-20T12:05:35.085Z,14.48
2022-10-20T12:08:35.949Z,14.45
2022-10-20T12:11:11.668Z,14.42
2022-10-20T12:13:48.958Z,14.42
2022-10-20T12:16:49.989Z,14.39
2022-10-20T12:19:19.933Z,14.45
2022-10-20T12:22:00.209Z,14.42
2022-10-20T12:24:34.855Z,14.45
2022-10-20T12:27:19.155Z,14.41
2022-10-20T12:30:01.800Z,14.43
2022-10-20T12:32:54.183Z,14.47
2022-10-20T12:35:47.616Z,14.46
2022-10-20T12:38:19.927Z,14.49
2022-10-20T12:40:52.693Z,14.48
2022-10-20T12:43:27.275Z,14.49
2022-10-20T12:45:59.827Z,14.50
2022-10-20T12:48:28.470Z,14.41
2022-10-20T12:51:07.518Z,14.60
2022-10-20T12:53:36.870Z,14.62
2022-10-20T12:56:08.879Z,14.67
2022-10-20T12:58:38.284Z,14.72
2022-10-20T13:01:13.286Z,14.67
2022-10-20T13:03:44.183Z,14.76
2022-10-20T13:06:40.650Z,14.81
2022-10-20T13:09:27.759Z,14.78
2022-10-20T13:11:59.339Z,14.87
2022-10-20T13:14:34.578Z,14.82
2022-10-20T13:17:13.690Z,14.82
2022-10-20T13:19:48.443Z,14.84
2022-10-20T13:22:35.911Z,14.86
2022-10-20T13:25:07.878Z,14.95
2022-10-20T13:27:38.992Z,14.96
2022-10-20T13:30:09.371Z,15.00
2022-10-20T13:33:10.833Z,14.99
2022-10-20T13:35:48.012Z,15.00
2022-10-20T13:38:21.819Z,14.88
2022-10-20T13:43:43.417Z,14.98
2022-10-20T13:46:25.397Z,15.00
2022-10-20T13:49:20.136Z,15.02
2022-10-20T13:52:00.844Z,15.04
2022-10-20T13:54:33.249Z,14.94
2022-10-20T13:57:03.482Z,15.09
2022-10-20T14:02:25.544Z,15.34
2022-10-20T14:05:03.777Z,15.39
2022-10-20T14:07:42.556Z,15.44
2022-10-20T14:10:26.672Z,15.46
2022-10-20T14:12:56.810Z,15.47
2022-10-20T14:15:31.584Z,15.48
2022-10-20T14:18:02.579Z,15.45
2022-10-20T14:20:32.012Z,15.43
2022-10-20T14:23:01.338Z,15.37
2022-10-20T14:25:31.400Z,15.37
2022-10-20T14:28:05.134Z,15.35
2022-10-20T14:30:40.195Z,15.34
2022-10-20T14:33:16.017Z,15.39
2022-10-20T14:35:48.457Z,15.28
2022-10-20T14:38:23.798Z,15.44
2022-10-20T14:40:55.972Z,15.45
2022-10-20T14:43:37.151Z,15.41
2022-10-20T14:46:06.509Z,15.52
2022-10-20T14:48:37.771Z,15.35
2022-10-20T14:51:31.046Z,15.48
2022-10-20T14:54:19.940Z,15.27
2022-10-20T14:56:51.239Z,15.40
2022-10-20T14:59:23.331Z,15.29
2022-10-20T15:02:08.547Z,15.29
2022-10-20T15:04:40.039Z,15.26
2022-10-20T15:07:13.614Z,15.22
2022-10-20T15:09:43.953Z,15.21
2022-10-20T15:56:23.636Z,14.97
2022-10-20T15:58:51.452Z,14.95
2022-10-20T16:01:20.804Z,14.97
2022-10-20T16:03:49.451Z,14.95
2022-10-20T16:06:18.976Z,14.94
2022-10-20T16:08:48.005Z,14.93
2022-10-20T16:11:17.285Z,14.92
2022-10-20T16:13:46.403Z,14.84
2022-10-20T16:16:16.282Z,14.90
2022-10-20T16:18:44.082Z,14.86
2022-10-20T16:21:11.796Z,14.86
2022-10-20T16:23:42.356Z,14.88
2022-10-20T16:26:13.982Z,14.86
2022-10-20T16:28:43.031Z,14.86
2022-10-20T16:31:14.073Z,14.86
2022-10-20T16:33:42.071Z,14.66
2022-10-20T16:36:14.606Z,14.81
2022-10-20T16:38:42.338Z,14.82
2022-10-20T16:41:12.404Z,14.84
2022-10-20T16:43:40.893Z,14.84
2022-10-20T16:46:10.027Z,14.83
2022-10-20T16:48:41.513Z,14.82
2022-10-20T16:51:12.111Z,14.82
2022-10-20T16:53:39.849Z,14.78
2022-10-20T16:56:08.679Z,14.81
2022-10-20T16:58:36.749Z,14.81
2022-10-20T17:01:08.414Z,14.76
2022-10-20T17:03:36.630Z,14.75
2022-10-20T17:06:07.918Z,14.72
2022-10-20T17:08:37.268Z,14.72
2022-10-20T17:11:07.687Z,14.62
2022-10-20T17:13:36.766Z,14.70
2022-10-20T17:16:06.416Z,14.71
2022-10-20T17:18:34.315Z,14.74
2022-10-20T17:21:02.452Z,14.74
2022-10-20T17:23:37.390Z,14.76
2022-10-20T17:26:09.731Z,14.76
2022-10-20T17:28:38.248Z,14.74
2022-10-20T17:31:07.922Z,14.76
2022-10-20T17:33:35.993Z,14.76
2022-10-20T17:36:03.736Z,14.52
2022-10-20T17:38:33.012Z,14.75
2022-10-20T17:41:04.133Z,14.75
2022-10-20T17:43:32.091Z,14.76
2022-10-20T17:46:01.316Z,14.73
2022-10-20T17:48:29.367Z,14.74
2022-10-20T17:51:01.374Z,14.54
2022-10-20T17:53:31.271Z,14.75
2022-10-20T17:56:03.401Z,14.75
2022-10-20T17:58:31.525Z,14.74
2022-10-20T18:01:08.484Z,14.75
2022-10-20T18:03:36.571Z,14.75
2022-10-20T18:06:09.246Z,14.76
2022-10-20T18:08:37.404Z,14.76
2022-10-20T18:11:10.565Z,14.76
2022-10-20T18:13:38.859Z,14.77
2022-10-20T18:16:08.477Z,14.76
2022-10-20T18:18:36.885Z,14.67
2022-10-20T18:21:06.042Z,14.74
2022-10-20T18:23:36.056Z,14.76
2022-10-20T18:26:10.273Z,14.76
2022-10-20T18:28:42.024Z,14.80
2022-10-20T18:31:17.418Z,14.68
2022-10-20T18:33:45.565Z,14.77
2022-10-20T18:36:14.761Z,14.80
2022-10-20T18:38:44.394Z,14.78
2022-10-20T18:41:16.604Z,14.73
2022-10-20T18:43:45.726Z,14.81
2022-10-20T18:46:14.860Z,14.81
2022-10-20T18:48:43.038Z,14.78
2022-10-20T18:51:12.182Z,14.78
2022-10-20T18:56:11.715Z,14.75
2022-10-20T18:58:42.205Z,14.74
2022-10-20T19:01:11.918Z,14.76
2022-10-20T19:03:40.752Z,14.77
2022-10-20T19:06:10.785Z,14.78
2022-10-20T19:08:39.262Z,14.80
2022-10-20T19:11:10.169Z,14.78
2022-10-20T19:13:40.275Z,14.81
2022-10-20T19:16:09.699Z,14.68
2022-10-20T19:18:39.342Z,14.75
2022-10-20T19:21:08.767Z,14.83
2022-10-20T19:23:39.635Z,14.69
2022-10-20T19:26:09.522Z,14.86
2022-10-20T19:28:41.043Z,14.83
2022-10-20T19:31:21.230Z,14.86
2022-10-20T19:33:51.146Z,14.81
2022-10-20T19:36:19.085Z,14.80
2022-10-20T19:38:47.250Z,14.81
2022-10-20T19:41:15.528Z,14.76
2022-10-20T19:43:45.063Z,14.81
2022-10-20T19:46:15.980Z,14.77
2022-10-20T19:48:45.280Z,14.80
2022-10-20T19:51:13.765Z,14.80
2022-10-20T19:53:41.752Z,14.74
2022-10-20T19:56:10.799Z,14.83
2022-10-20T19:58:42.781Z,14.83
2022-10-20T20:01:14.998Z,14.84
2022-10-20T20:03:43.190Z,14.82
2022-10-20T20:06:16.103Z,14.84
2022-10-20T20:08:45.519Z,14.85
2022-10-20T20:11:22.777Z,14.84
2022-10-20T20:13:51.484Z,14.84
2022-10-20T20:16:21.360Z,14.84
2022-10-20T20:18:49.767Z,14.83
2022-10-20T20:21:18.106Z,14.82
2022-10-20T20:24:01.443Z,14.77
2022-10-20T20:26:30.177Z,14.80
2022-10-20T20:28:58.388Z,14.78
2022-10-20T20:31:28.571Z,14.80
2022-10-20T20:33:57.672Z,14.80
2022-10-20T20:36:27.515Z,14.78
2022-10-20T20:38:58.128Z,14.78
2022-10-20T20:41:28.232Z,14.80
2022-10-20T20:43:56.049Z,14.79
2022-10-20T20:46:26.673Z,14.81
2022-10-20T20:48:55.944Z,14.73
2022-10-20T20:51:25.119Z,14.81
2022-10-20T20:53:52.869Z,14.82
2022-10-20T20:56:23.106Z,14.83
2022-10-20T20:58:55.068Z,14.83
2022-10-20T21:01:24.958Z,14.73
2022-10-20T21:03:55.498Z,14.89
2022-10-20T21:06:33.233Z,14.88
2022-10-20T21:09:02.538Z,14.92
2022-10-20T21:11:30.354Z,14.93
2022-10-20T21:13:59.742Z,14.93
2022-10-20T21:16:29.314Z,14.72
2022-10-20T21:19:00.117Z,14.96
2022-10-20T21:21:29.384Z,15.00
2022-10-20T21:23:58.303Z,15.00
2022-10-20T21:26:27.502Z,15.02
2022-10-20T21:28:55.772Z,15.04
2022-10-20T21:31:25.967Z,15.03
2022-10-20T21:33:55.810Z,15.04
2022-10-20T21:36:26.135Z,15.00
2022-10-20T21:38:54.347Z,15.03
2022-10-20T21:41:23.320Z,15.04
2022-10-20T21:43:52.863Z,15.05
2022-10-20T21:46:22.995Z,15.07
2022-10-20T21:48:52.905Z,15.08
2022-10-20T21:51:22.964Z,15.11
2022-10-20T21:53:55.752Z,15.09
2022-10-20T21:56:23.504Z,15.12
2022-10-20T21:58:51.375Z,15.12
2022-10-20T22:01:21.822Z,15.12
2022-10-20T22:03:51.144Z,15.11
2022-10-20T22:06:21.059Z,15.08
2022-10-20T22:08:53.016Z,15.11
2022-10-20T22:11:23.951Z,15.15
2022-10-20T22:13:51.888Z,15.16
2022-10-20T22:16:23.107Z,15.11
2022-10-20T22:18:55.589Z,15.14
2022-10-20T22:21:24.178Z,15.12
2022-10-20T22:23:55.427Z,15.15
2022-10-20T22:26:25.702Z,15.13
2022-10-20T22:28:54.376Z,15.13
2022-10-20T22:31:22.961Z,15.09
2022-10-20T22:33:55.868Z,15.10
2022-10-20T22:36:24.381Z,15.13
2022-10-20T22:38:52.228Z,15.16
2022-10-20T22:41:21.814Z,15.14
2022-10-20T22:43:49.561Z,15.16
2022-10-20T22:46:17.773Z,15.14
2022-10-20T22:48:46.224Z,15.18
2022-10-20T22:51:15.218Z,15.17
2022-10-20T22:53:44.534Z,15.12
2022-10-20T22:56:14.796Z,15.16
2022-10-20T22:58:44.618Z,15.16
2022-10-20T23:01:17.283Z,15.16
2022-10-20T23:03:45.299Z,15.11
2022-10-20T23:06:15.432Z,15.14
2022-10-20T23:08:52.154Z,15.16
2022-10-20T23:11:24.293Z,15.13
2022-10-20T23:13:53.771Z,15.09
2022-10-20T23:16:21.730Z,15.03
2022-10-20T23:18:49.542Z,15.15
2022-10-20T23:21:20.099Z,15.16
2022-10-20T23:23:47.909Z,15.17
2022-10-20T23:26:15.729Z,15.17
2022-10-20T23:28:43.520Z,15.15
2022-10-20T23:31:13.748Z,15.18
2022-10-20T23:33:42.901Z,15.17
2022-10-20T23:36:11.039Z,15.18
2022-10-20T23:38:39.062Z,15.15
2022-10-20T23:41:07.409Z,15.17
2022-10-20T23:46:04.732Z,15.17
2022-10-20T23:48:34.354Z,15.18
2022-10-20T23:51:02.619Z,15.14
2022-10-20T23:53:31.549Z,15.17
2022-10-20T23:55:59.263Z,15.17
2022-10-20T23:58:27.245Z,15.18
